sensor_id;sensor_type;location;lat;lon;timestamp;P1;durP1;ratioP1;P2;durP2;ratioP2
13981;SDS011;7065;50.880;5.502;2023-09-30T00:01:21;9.15;;;7.25;;
13981;SDS011;7065;50.880;5.502;2023-09-30T00:03:49;11.15;;;8.77;;
13981;SDS011;7065;50.880;5.502;2023-09-30T00:06:15;17.25;;;12.55;;
13981;SDS011;7065;50.880;5.502;2023-09-30T00:08:40;14.43;;;11.90;;
13981;SDS011;7065;50.880;5.502;2023-09-30T00:11:07;14.27;;;10.43;;
13981;SDS011;7065;50.880;5.502;2023-09-30T00:13:33;16.17;;;10.70;;
13981;SDS011;7065;50.880;5.502;2023-09-30T00:15:59;13.63;;;10.48;;
13981;SDS011;7065;50.880;5.502;2023-09-30T00:18:25;12.25;;;10.55;;
13981;SDS011;7065;50.880;5.502;2023-09-30T00:20:50;9.60;;;7.90;;
13981;SDS011;7065;50.880;5.502;2023-09-30T00:23:16;9.57;;;7.88;;
13981;SDS011;7065;50.880;5.502;2023-09-30T00:25:42;7.05;;;6.00;;
13981;SDS011;7065;50.880;5.502;2023-09-30T00:28:07;7.55;;;5.43;;
13981;SDS011;7065;50.880;5.502;2023-09-30T00:30:33;4.80;;;4.40;;
13981;SDS011;7065;50.880;5.502;2023-09-30T00:32:59;5.82;;;4.18;;
13981;SDS011;7065;50.880;5.502;2023-09-30T00:35:25;6.47;;;4.97;;
13981;SDS011;7065;50.880;5.502;2023-09-30T00:37:50;15.82;;;9.60;;
13981;SDS011;7065;50.880;5.502;2023-09-30T00:40:16;11.63;;;8.82;;
13981;SDS011;7065;50.880;5.502;2023-09-30T00:42:42;12.35;;;9.38;;
13981;SDS011;7065;50.880;5.502;2023-09-30T00:45:08;13.80;;;9.15;;
13981;SDS011;7065;50.880;5.502;2023-09-30T00:47:35;12.55;;;9.50;;
13981;SDS011;7065;50.880;5.502;2023-09-30T00:50:02;14.07;;;11.43;;
13981;SDS011;7065;50.880;5.502;2023-09-30T00:52:29;13.98;;;9.50;;
13981;SDS011;7065;50.880;5.502;2023-09-30T00:54:57;14.52;;;11.60;;
13981;SDS011;7065;50.880;5.502;2023-09-30T00:57:23;15.27;;;11.55;;
13981;SDS011;7065;50.880;5.502;2023-09-30T00:59:50;17.33;;;12.07;;
13981;SDS011;7065;50.880;5.502;2023-09-30T01:02:20;13.23;;;10.18;;
13981;SDS011;7065;50.880;5.502;2023-09-30T01:04:48;18.30;;;11.27;;
13981;SDS011;7065;50.880;5.502;2023-09-30T01:07:14;13.70;;;10.35;;
13981;SDS011;7065;50.880;5.502;2023-09-30T01:09:39;13.55;;;10.02;;
13981;SDS011;7065;50.880;5.502;2023-09-30T01:12:05;11.93;;;9.90;;
13981;SDS011;7065;50.880;5.502;2023-09-30T01:14:33;15.00;;;10.13;;
13981;SDS011;7065;50.880;5.502;2023-09-30T01:17:00;17.52;;;12.05;;
13981;SDS011;7065;50.880;5.502;2023-09-30T01:19:26;15.60;;;10.57;;
13981;SDS011;7065;50.880;5.502;2023-09-30T01:21:56;17.92;;;11.70;;
13981;SDS011;7065;50.880;5.502;2023-09-30T01:24:27;16.65;;;12.57;;
13981;SDS011;7065;50.880;5.502;2023-09-30T01:26:54;19.80;;;12.63;;
13981;SDS011;7065;50.880;5.502;2023-09-30T01:29:21;19.80;;;13.50;;
13981;SDS011;7065;50.880;5.502;2023-09-30T01:31:47;21.67;;;14.93;;
13981;SDS011;7065;50.880;5.502;2023-09-30T01:34:15;19.02;;;13.55;;
13981;SDS011;7065;50.880;5.502;2023-09-30T01:36:44;21.05;;;14.95;;
13981;SDS011;7065;50.880;5.502;2023-09-30T01:39:10;21.23;;;14.07;;
13981;SDS011;7065;50.880;5.502;2023-09-30T01:41:37;23.30;;;14.98;;
13981;SDS011;7065;50.880;5.502;2023-09-30T01:44:03;19.48;;;14.32;;
13981;SDS011;7065;50.880;5.502;2023-09-30T01:46:29;19.55;;;12.65;;
13981;SDS011;7065;50.880;5.502;2023-09-30T01:48:55;20.67;;;12.93;;
13981;SDS011;7065;50.880;5.502;2023-09-30T01:51:20;20.33;;;12.25;;
13981;SDS011;7065;50.880;5.502;2023-09-30T01:53:47;19.00;;;12.13;;
13981;SDS011;7065;50.880;5.502;2023-09-30T01:56:13;15.70;;;10.90;;
13981;SDS011;7065;50.880;5.502;2023-09-30T01:58:38;17.98;;;12.20;;
13981;SDS011;7065;50.880;5.502;2023-09-30T02:01:04;17.85;;;12.57;;
13981;SDS011;7065;50.880;5.502;2023-09-30T02:03:30;18.20;;;11.27;;
13981;SDS011;7065;50.880;5.502;2023-09-30T02:05:59;16.00;;;12.15;;
13981;SDS011;7065;50.880;5.502;2023-09-30T02:08:24;15.05;;;10.88;;
13981;SDS011;7065;50.880;5.502;2023-09-30T02:10:50;15.43;;;11.55;;
13981;SDS011;7065;50.880;5.502;2023-09-30T02:13:17;21.27;;;14.38;;
13981;SDS011;7065;50.880;5.502;2023-09-30T02:15:43;17.35;;;12.95;;
13981;SDS011;7065;50.880;5.502;2023-09-30T02:18:09;18.15;;;13.15;;
13981;SDS011;7065;50.880;5.502;2023-09-30T02:20:36;18.08;;;13.23;;
13981;SDS011;7065;50.880;5.502;2023-09-30T02:23:05;13.27;;;11.05;;
13981;SDS011;7065;50.880;5.502;2023-09-30T02:25:31;14.88;;;10.23;;
13981;SDS011;7065;50.880;5.502;2023-09-30T02:27:58;10.60;;;8.55;;
13981;SDS011;7065;50.880;5.502;2023-09-30T02:30:24;12.27;;;9.48;;
13981;SDS011;7065;50.880;5.502;2023-09-30T02:32:50;13.70;;;9.95;;
13981;SDS011;7065;50.880;5.502;2023-09-30T02:35:16;14.35;;;10.60;;
13981;SDS011;7065;50.880;5.502;2023-09-30T02:37:42;13.70;;;9.05;;
13981;SDS011;7065;50.880;5.502;2023-09-30T02:40:08;7.82;;;6.68;;
13981;SDS011;7065;50.880;5.502;2023-09-30T02:42:37;7.95;;;7.15;;
13981;SDS011;7065;50.880;5.502;2023-09-30T02:45:03;6.30;;;5.70;;
13981;SDS011;7065;50.880;5.502;2023-09-30T02:47:30;13.02;;;4.90;;
13981;SDS011;7065;50.880;5.502;2023-09-30T02:49:56;5.82;;;3.85;;
13981;SDS011;7065;50.880;5.502;2023-09-30T02:52:23;3.92;;;3.40;;
13981;SDS011;7065;50.880;5.502;2023-09-30T02:54:50;5.15;;;4.53;;
13981;SDS011;7065;50.880;5.502;2023-09-30T02:57:16;17.65;;;4.20;;
13981;SDS011;7065;50.880;5.502;2023-09-30T02:59:43;7.35;;;6.65;;
13981;SDS011;7065;50.880;5.502;2023-09-30T03:02:09;7.97;;;5.43;;
13981;SDS011;7065;50.880;5.502;2023-09-30T03:04:36;6.03;;;5.40;;
13981;SDS011;7065;50.880;5.502;2023-09-30T03:07:02;7.95;;;7.22;;
13981;SDS011;7065;50.880;5.502;2023-09-30T03:09:28;9.77;;;8.63;;
13981;SDS011;7065;50.880;5.502;2023-09-30T03:11:54;13.27;;;8.63;;
13981;SDS011;7065;50.880;5.502;2023-09-30T03:14:24;12.52;;;8.98;;
13981;SDS011;7065;50.880;5.502;2023-09-30T03:16:50;11.38;;;8.45;;
13981;SDS011;7065;50.880;5.502;2023-09-30T03:19:16;9.68;;;7.93;;
13981;SDS011;7065;50.880;5.502;2023-09-30T03:21:42;7.40;;;6.70;;
13981;SDS011;7065;50.880;5.502;2023-09-30T03:24:08;8.40;;;6.70;;
13981;SDS011;7065;50.880;5.502;2023-09-30T03:26:34;8.02;;;6.93;;
13981;SDS011;7065;50.880;5.502;2023-09-30T03:29:00;10.70;;;7.45;;
13981;SDS011;7065;50.880;5.502;2023-09-30T03:31:26;9.48;;;7.88;;
13981;SDS011;7065;50.880;5.502;2023-09-30T03:33:52;11.25;;;9.25;;
13981;SDS011;7065;50.880;5.502;2023-09-30T03:36:21;15.23;;;10.85;;
13981;SDS011;7065;50.880;5.502;2023-09-30T03:38:50;14.50;;;11.27;;
13981;SDS011;7065;50.880;5.502;2023-09-30T03:41:19;14.68;;;10.43;;
13981;SDS011;7065;50.880;5.502;2023-09-30T03:43:46;15.38;;;11.68;;
13981;SDS011;7065;50.880;5.502;2023-09-30T03:46:14;16.10;;;11.75;;
13981;SDS011;7065;50.880;5.502;2023-09-30T03:48:40;19.10;;;12.18;;
13981;SDS011;7065;50.880;5.502;2023-09-30T03:51:10;16.48;;;11.25;;
13981;SDS011;7065;50.880;5.502;2023-09-30T03:53:43;14.48;;;11.90;;
13981;SDS011;7065;50.880;5.502;2023-09-30T03:56:09;15.90;;;11.68;;
13981;SDS011;7065;50.880;5.502;2023-09-30T03:58:41;15.52;;;11.68;;
13981;SDS011;7065;50.880;5.502;2023-09-30T04:01:11;14.25;;;10.77;;
13981;SDS011;7065;50.880;5.502;2023-09-30T04:03:37;15.65;;;11.27;;
13981;SDS011;7065;50.880;5.502;2023-09-30T04:06:06;14.77;;;10.70;;
13981;SDS011;7065;50.880;5.502;2023-09-30T04:08:33;23.55;;;14.60;;
13981;SDS011;7065;50.880;5.502;2023-09-30T04:10:59;20.65;;;13.15;;
13981;SDS011;7065;50.880;5.502;2023-09-30T04:13:25;17.85;;;12.82;;
13981;SDS011;7065;50.880;5.502;2023-09-30T04:15:52;18.23;;;13.02;;
13981;SDS011;7065;50.880;5.502;2023-09-30T04:18:18;19.70;;;14.38;;
13981;SDS011;7065;50.880;5.502;2023-09-30T04:20:45;22.20;;;14.98;;
13981;SDS011;7065;50.880;5.502;2023-09-30T04:23:12;20.02;;;14.02;;
13981;SDS011;7065;50.880;5.502;2023-09-30T04:25:38;27.55;;;14.55;;
13981;SDS011;7065;50.880;5.502;2023-09-30T04:28:05;18.50;;;13.07;;
13981;SDS011;7065;50.880;5.502;2023-09-30T04:30:32;17.77;;;12.77;;
13981;SDS011;7065;50.880;5.502;2023-09-30T04:33:00;19.23;;;12.63;;
13981;SDS011;7065;50.880;5.502;2023-09-30T04:35:26;14.80;;;11.43;;
13981;SDS011;7065;50.880;5.502;2023-09-30T04:37:52;12.95;;;10.02;;
13981;SDS011;7065;50.880;5.502;2023-09-30T04:40:18;15.40;;;10.70;;
13981;SDS011;7065;50.880;5.502;2023-09-30T04:42:47;16.40;;;12.15;;
13981;SDS011;7065;50.880;5.502;2023-09-30T04:45:13;20.85;;;13.23;;
13981;SDS011;7065;50.880;5.502;2023-09-30T04:47:45;23.27;;;15.10;;
13981;SDS011;7065;50.880;5.502;2023-09-30T04:50:10;19.65;;;13.68;;
13981;SDS011;7065;50.880;5.502;2023-09-30T04:52:38;18.38;;;14.00;;
13981;SDS011;7065;50.880;5.502;2023-09-30T04:55:06;23.55;;;15.00;;
13981;SDS011;7065;50.880;5.502;2023-09-30T04:57:33;19.67;;;14.68;;
13981;SDS011;7065;50.880;5.502;2023-09-30T04:59:58;26.10;;;17.55;;
13981;SDS011;7065;50.880;5.502;2023-09-30T05:02:24;24.83;;;16.88;;
13981;SDS011;7065;50.880;5.502;2023-09-30T05:04:50;30.17;;;17.73;;
13981;SDS011;7065;50.880;5.502;2023-09-30T05:07:17;27.38;;;16.42;;
13981;SDS011;7065;50.880;5.502;2023-09-30T05:09:44;23.63;;;15.00;;
13981;SDS011;7065;50.880;5.502;2023-09-30T05:12:10;26.23;;;17.75;;
13981;SDS011;7065;50.880;5.502;2023-09-30T05:14:36;33.15;;;18.58;;
13981;SDS011;7065;50.880;5.502;2023-09-30T05:17:03;28.70;;;17.70;;
13981;SDS011;7065;50.880;5.502;2023-09-30T05:19:30;24.67;;;16.25;;
13981;SDS011;7065;50.880;5.502;2023-09-30T05:21:58;26.60;;;16.70;;
13981;SDS011;7065;50.880;5.502;2023-09-30T05:24:26;24.17;;;15.80;;
13981;SDS011;7065;50.880;5.502;2023-09-30T05:26:55;22.02;;;13.75;;
13981;SDS011;7065;50.880;5.502;2023-09-30T05:29:20;19.58;;;13.85;;
13981;SDS011;7065;50.880;5.502;2023-09-30T05:31:47;22.60;;;13.88;;
13981;SDS011;7065;50.880;5.502;2023-09-30T05:34:13;18.85;;;14.95;;
13981;SDS011;7065;50.880;5.502;2023-09-30T05:36:39;18.27;;;13.40;;
13981;SDS011;7065;50.880;5.502;2023-09-30T05:39:05;15.98;;;10.95;;
13981;SDS011;7065;50.880;5.502;2023-09-30T05:41:31;15.25;;;10.20;;
13981;SDS011;7065;50.880;5.502;2023-09-30T05:43:57;14.32;;;11.68;;
13981;SDS011;7065;50.880;5.502;2023-09-30T05:46:24;21.42;;;14.23;;
13981;SDS011;7065;50.880;5.502;2023-09-30T05:48:52;19.10;;;13.20;;
13981;SDS011;7065;50.880;5.502;2023-09-30T05:51:17;17.75;;;12.13;;
13981;SDS011;7065;50.880;5.502;2023-09-30T05:53:44;20.45;;;12.65;;
13981;SDS011;7065;50.880;5.502;2023-09-30T05:56:12;20.13;;;12.98;;
13981;SDS011;7065;50.880;5.502;2023-09-30T05:58:40;20.20;;;12.95;;
13981;SDS011;7065;50.880;5.502;2023-09-30T06:01:09;18.20;;;13.05;;
13981;SDS011;7065;50.880;5.502;2023-09-30T06:03:40;20.13;;;13.60;;
13981;SDS011;7065;50.880;5.502;2023-09-30T06:06:12;17.88;;;12.75;;
13981;SDS011;7065;50.880;5.502;2023-09-30T06:08:42;27.13;;;15.90;;
13981;SDS011;7065;50.880;5.502;2023-09-30T06:11:20;19.95;;;12.38;;
13981;SDS011;7065;50.880;5.502;2023-09-30T06:13:53;19.38;;;12.23;;
13981;SDS011;7065;50.880;5.502;2023-09-30T06:16:19;15.38;;;10.82;;
13981;SDS011;7065;50.880;5.502;2023-09-30T06:18:45;15.77;;;10.00;;
13981;SDS011;7065;50.880;5.502;2023-09-30T06:21:12;14.20;;;9.60;;
13981;SDS011;7065;50.880;5.502;2023-09-30T06:23:39;14.10;;;9.27;;
13981;SDS011;7065;50.880;5.502;2023-09-30T06:26:06;13.45;;;9.70;;
13981;SDS011;7065;50.880;5.502;2023-09-30T06:28:31;22.63;;;11.60;;
13981;SDS011;7065;50.880;5.502;2023-09-30T06:30:59;17.23;;;10.50;;
13981;SDS011;7065;50.880;5.502;2023-09-30T06:33:25;18.70;;;11.70;;
13981;SDS011;7065;50.880;5.502;2023-09-30T06:35:54;24.02;;;17.50;;
13981;SDS011;7065;50.880;5.502;2023-09-30T06:38:20;20.70;;;12.65;;
13981;SDS011;7065;50.880;5.502;2023-09-30T06:40:46;21.45;;;14.05;;
13981;SDS011;7065;50.880;5.502;2023-09-30T06:43:15;23.23;;;13.32;;
13981;SDS011;7065;50.880;5.502;2023-09-30T06:45:42;24.55;;;14.80;;
13981;SDS011;7065;50.880;5.502;2023-09-30T06:48:08;37.40;;;19.13;;
13981;SDS011;7065;50.880;5.502;2023-09-30T06:50:44;44.78;;;24.77;;
13981;SDS011;7065;50.880;5.502;2023-09-30T06:53:11;54.67;;;26.77;;
13981;SDS011;7065;50.880;5.502;2023-09-30T06:55:37;58.53;;;29.90;;
13981;SDS011;7065;50.880;5.502;2023-09-30T06:58:06;59.65;;;28.40;;
13981;SDS011;7065;50.880;5.502;2023-09-30T07:00:38;58.45;;;28.27;;
13981;SDS011;7065;50.880;5.502;2023-09-30T07:03:06;51.25;;;27.67;;
13981;SDS011;7065;50.880;5.502;2023-09-30T07:05:32;54.92;;;27.17;;
13981;SDS011;7065;50.880;5.502;2023-09-30T07:07:59;49.33;;;24.70;;
13981;SDS011;7065;50.880;5.502;2023-09-30T07:10:25;45.83;;;24.05;;
13981;SDS011;7065;50.880;5.502;2023-09-30T07:12:51;41.25;;;22.58;;
13981;SDS011;7065;50.880;5.502;2023-09-30T07:15:16;43.08;;;22.08;;
13981;SDS011;7065;50.880;5.502;2023-09-30T07:17:43;37.55;;;22.23;;
13981;SDS011;7065;50.880;5.502;2023-09-30T07:20:11;35.35;;;21.08;;
13981;SDS011;7065;50.880;5.502;2023-09-30T07:22:37;44.08;;;21.60;;
13981;SDS011;7065;50.880;5.502;2023-09-30T07:25:02;33.58;;;20.60;;
13981;SDS011;7065;50.880;5.502;2023-09-30T07:27:29;38.00;;;19.55;;
13981;SDS011;7065;50.880;5.502;2023-09-30T07:29:55;34.28;;;20.55;;
13981;SDS011;7065;50.880;5.502;2023-09-30T07:32:21;32.38;;;20.23;;
13981;SDS011;7065;50.880;5.502;2023-09-30T07:34:50;35.35;;;20.30;;
13981;SDS011;7065;50.880;5.502;2023-09-30T07:37:16;38.55;;;21.63;;
13981;SDS011;7065;50.880;5.502;2023-09-30T07:39:43;33.15;;;20.77;;
13981;SDS011;7065;50.880;5.502;2023-09-30T07:42:10;38.97;;;21.42;;
13981;SDS011;7065;50.880;5.502;2023-09-30T07:44:36;36.25;;;21.13;;
13981;SDS011;7065;50.880;5.502;2023-09-30T07:47:04;32.85;;;20.95;;
13981;SDS011;7065;50.880;5.502;2023-09-30T07:49:33;38.88;;;22.85;;
13981;SDS011;7065;50.880;5.502;2023-09-30T07:51:59;39.80;;;24.45;;
13981;SDS011;7065;50.880;5.502;2023-09-30T07:54:25;42.22;;;24.75;;
13981;SDS011;7065;50.880;5.502;2023-09-30T07:56:51;39.90;;;24.60;;
13981;SDS011;7065;50.880;5.502;2023-09-30T07:59:17;44.45;;;25.70;;
13981;SDS011;7065;50.880;5.502;2023-09-30T08:01:43;41.60;;;24.88;;
13981;SDS011;7065;50.880;5.502;2023-09-30T08:04:08;39.85;;;24.25;;
13981;SDS011;7065;50.880;5.502;2023-09-30T08:06:34;41.47;;;25.52;;
13981;SDS011;7065;50.880;5.502;2023-09-30T08:09:00;38.78;;;24.00;;
13981;SDS011;7065;50.880;5.502;2023-09-30T08:11:28;39.88;;;24.20;;
13981;SDS011;7065;50.880;5.502;2023-09-30T08:13:56;42.10;;;25.25;;
13981;SDS011;7065;50.880;5.502;2023-09-30T08:16:24;35.63;;;23.75;;
13981;SDS011;7065;50.880;5.502;2023-09-30T08:18:50;38.08;;;23.40;;
13981;SDS011;7065;50.880;5.502;2023-09-30T08:21:16;32.55;;;21.55;;
13981;SDS011;7065;50.880;5.502;2023-09-30T08:23:42;33.00;;;22.33;;
13981;SDS011;7065;50.880;5.502;2023-09-30T08:26:09;35.67;;;22.63;;
13981;SDS011;7065;50.880;5.502;2023-09-30T08:28:34;32.70;;;21.80;;
13981;SDS011;7065;50.880;5.502;2023-09-30T08:31:03;33.28;;;23.35;;
13981;SDS011;7065;50.880;5.502;2023-09-30T08:33:30;29.15;;;20.25;;
13981;SDS011;7065;50.880;5.502;2023-09-30T08:36:01;30.95;;;21.05;;
13981;SDS011;7065;50.880;5.502;2023-09-30T08:38:40;24.50;;;19.45;;
13981;SDS011;7065;50.880;5.502;2023-09-30T08:41:06;23.23;;;19.05;;
13981;SDS011;7065;50.880;5.502;2023-09-30T08:43:36;25.65;;;20.02;;
13981;SDS011;7065;50.880;5.502;2023-09-30T08:46:04;25.20;;;19.60;;
13981;SDS011;7065;50.880;5.502;2023-09-30T08:48:31;22.42;;;19.23;;
13981;SDS011;7065;50.880;5.502;2023-09-30T08:50:58;24.20;;;18.15;;
13981;SDS011;7065;50.880;5.502;2023-09-30T08:53:25;21.85;;;18.50;;
13981;SDS011;7065;50.880;5.502;2023-09-30T08:55:52;21.27;;;18.08;;
13981;SDS011;7065;50.880;5.502;2023-09-30T08:58:26;17.85;;;15.95;;
13981;SDS011;7065;50.880;5.502;2023-09-30T09:00:53;19.58;;;17.48;;
13981;SDS011;7065;50.880;5.502;2023-09-30T09:03:19;22.75;;;15.65;;
13981;SDS011;7065;50.880;5.502;2023-09-30T09:05:46;20.45;;;15.75;;
13981;SDS011;7065;50.880;5.502;2023-09-30T09:08:18;16.70;;;14.93;;
13981;SDS011;7065;50.880;5.502;2023-09-30T09:10:58;16.77;;;14.80;;
13981;SDS011;7065;50.880;5.502;2023-09-30T09:13:25;17.30;;;15.63;;
13981;SDS011;7065;50.880;5.502;2023-09-30T09:16:07;16.15;;;14.48;;
13981;SDS011;7065;50.880;5.502;2023-09-30T09:18:34;15.27;;;13.63;;
13981;SDS011;7065;50.880;5.502;2023-09-30T09:23:46;16.17;;;14.60;;
13981;SDS011;7065;50.880;5.502;2023-09-30T09:26:22;17.27;;;15.40;;
13981;SDS011;7065;50.880;5.502;2023-09-30T09:28:58;15.07;;;13.60;;
13981;SDS011;7065;50.880;5.502;2023-09-30T09:31:26;16.48;;;14.77;;
13981;SDS011;7065;50.880;5.502;2023-09-30T09:34:13;18.42;;;14.93;;
13981;SDS011;7065;50.880;5.502;2023-09-30T09:36:41;16.17;;;14.48;;
13981;SDS011;7065;50.880;5.502;2023-09-30T09:39:07;15.60;;;14.20;;
13981;SDS011;7065;50.880;5.502;2023-09-30T09:41:33;15.18;;;13.57;;
13981;SDS011;7065;50.880;5.502;2023-09-30T09:44:17;15.45;;;13.85;;
13981;SDS011;7065;50.880;5.502;2023-09-30T09:46:49;15.40;;;13.70;;
13981;SDS011;7065;50.880;5.502;2023-09-30T09:49:18;16.58;;;14.95;;
13981;SDS011;7065;50.880;5.502;2023-09-30T09:51:45;16.40;;;14.70;;
13981;SDS011;7065;50.880;5.502;2023-09-30T09:54:12;16.15;;;14.45;;
13981;SDS011;7065;50.880;5.502;2023-09-30T09:56:38;19.20;;;16.15;;
13981;SDS011;7065;50.880;5.502;2023-09-30T09:59:04;14.07;;;12.15;;
13981;SDS011;7065;50.880;5.502;2023-09-30T10:01:32;16.08;;;14.20;;
13981;SDS011;7065;50.880;5.502;2023-09-30T10:03:59;16.95;;;15.25;;
13981;SDS011;7065;50.880;5.502;2023-09-30T10:06:26;19.38;;;16.75;;
13981;SDS011;7065;50.880;5.502;2023-09-30T10:08:53;19.98;;;17.88;;
13981;SDS011;7065;50.880;5.502;2023-09-30T10:11:19;19.27;;;16.60;;
13981;SDS011;7065;50.880;5.502;2023-09-30T10:19:09;19.48;;;16.85;;
13981;SDS011;7065;50.880;5.502;2023-09-30T10:21:39;25.15;;;21.52;;
13981;SDS011;7065;50.880;5.502;2023-09-30T10:37:51;18.80;;;16.55;;
13981;SDS011;7065;50.880;5.502;2023-09-30T10:40:50;18.10;;;15.93;;
13981;SDS011;7065;50.880;5.502;2023-09-30T10:43:29;18.10;;;14.77;;
13981;SDS011;7065;50.880;5.502;2023-09-30T10:45:59;15.73;;;14.13;;
13981;SDS011;7065;50.880;5.502;2023-09-30T10:53:19;14.52;;;12.27;;
13981;SDS011;7065;50.880;5.502;2023-09-30T10:55:46;16.90;;;13.43;;
13981;SDS011;7065;50.880;5.502;2023-09-30T10:58:15;13.27;;;11.98;;
13981;SDS011;7065;50.880;5.502;2023-09-30T11:00:53;14.93;;;11.82;;
13981;SDS011;7065;50.880;5.502;2023-09-30T11:03:20;13.95;;;12.27;;
13981;SDS011;7065;50.880;5.502;2023-09-30T11:05:50;13.13;;;11.82;;
13981;SDS011;7065;50.880;5.502;2023-09-30T11:08:18;12.00;;;10.75;;
13981;SDS011;7065;50.880;5.502;2023-09-30T11:10:50;14.32;;;11.20;;
13981;SDS011;7065;50.880;5.502;2023-09-30T11:13:19;15.48;;;12.90;;
13981;SDS011;7065;50.880;5.502;2023-09-30T11:15:45;14.98;;;13.48;;
13981;SDS011;7065;50.880;5.502;2023-09-30T11:18:15;16.35;;;13.32;;
13981;SDS011;7065;50.880;5.502;2023-09-30T11:20:42;16.45;;;13.98;;
13981;SDS011;7065;50.880;5.502;2023-09-30T11:23:09;21.48;;;16.38;;
13981;SDS011;7065;50.880;5.502;2023-09-30T11:25:36;20.40;;;17.05;;
13981;SDS011;7065;50.880;5.502;2023-09-30T11:28:15;19.10;;;15.77;;
13981;SDS011;7065;50.880;5.502;2023-09-30T11:30:58;15.88;;;13.93;;
13981;SDS011;7065;50.880;5.502;2023-09-30T11:33:25;17.33;;;14.38;;
13981;SDS011;7065;50.880;5.502;2023-09-30T11:38:26;18.25;;;13.02;;
13981;SDS011;7065;50.880;5.502;2023-09-30T11:41:01;16.67;;;13.02;;
13981;SDS011;7065;50.880;5.502;2023-09-30T11:43:34;14.35;;;11.80;;
13981;SDS011;7065;50.880;5.502;2023-09-30T11:46:07;17.13;;;13.25;;
13981;SDS011;7065;50.880;5.502;2023-09-30T11:48:34;18.58;;;13.90;;
13981;SDS011;7065;50.880;5.502;2023-09-30T11:51:01;16.30;;;12.95;;
13981;SDS011;7065;50.880;5.502;2023-09-30T11:53:30;13.15;;;11.70;;
13981;SDS011;7065;50.880;5.502;2023-09-30T11:56:00;16.17;;;12.00;;
13981;SDS011;7065;50.880;5.502;2023-09-30T11:58:28;14.90;;;12.40;;
13981;SDS011;7065;50.880;5.502;2023-09-30T12:00:54;15.07;;;13.00;;
13981;SDS011;7065;50.880;5.502;2023-09-30T12:03:22;114.10;;;59.30;;
13981;SDS011;7065;50.880;5.502;2023-09-30T12:05:48;17.23;;;13.20;;
13981;SDS011;7065;50.880;5.502;2023-09-30T12:08:14;13.13;;;11.60;;
13981;SDS011;7065;50.880;5.502;2023-09-30T12:10:40;12.35;;;11.05;;
13981;SDS011;7065;50.880;5.502;2023-09-30T12:13:06;11.95;;;9.85;;
13981;SDS011;7065;50.880;5.502;2023-09-30T12:15:32;11.88;;;10.48;;
13981;SDS011;7065;50.880;5.502;2023-09-30T12:17:57;11.85;;;10.48;;
13981;SDS011;7065;50.880;5.502;2023-09-30T12:20:23;11.75;;;9.80;;
13981;SDS011;7065;50.880;5.502;2023-09-30T12:22:52;11.50;;;8.65;;
13981;SDS011;7065;50.880;5.502;2023-09-30T12:25:18;9.82;;;6.82;;
13981;SDS011;7065;50.880;5.502;2023-09-30T12:27:47;9.60;;;7.32;;
13981;SDS011;7065;50.880;5.502;2023-09-30T12:30:13;9.48;;;6.80;;
13981;SDS011;7065;50.880;5.502;2023-09-30T12:32:39;7.80;;;6.18;;
13981;SDS011;7065;50.880;5.502;2023-09-30T12:35:05;9.75;;;6.20;;
13981;SDS011;7065;50.880;5.502;2023-09-30T12:37:31;7.78;;;5.65;;
13981;SDS011;7065;50.880;5.502;2023-09-30T12:39:57;8.48;;;6.65;;
13981;SDS011;7065;50.880;5.502;2023-09-30T12:42:23;8.48;;;5.57;;
13981;SDS011;7065;50.880;5.502;2023-09-30T12:44:49;7.65;;;5.43;;
13981;SDS011;7065;50.880;5.502;2023-09-30T12:47:15;9.52;;;4.90;;
13981;SDS011;7065;50.880;5.502;2023-09-30T12:49:41;5.50;;;4.38;;
13981;SDS011;7065;50.880;5.502;2023-09-30T12:52:07;5.72;;;3.70;;
13981;SDS011;7065;50.880;5.502;2023-09-30T12:54:33;5.63;;;3.92;;
13981;SDS011;7065;50.880;5.502;2023-09-30T12:56:59;5.90;;;4.32;;
13981;SDS011;7065;50.880;5.502;2023-09-30T12:59:25;6.45;;;3.88;;
13981;SDS011;7065;50.880;5.502;2023-09-30T13:01:51;5.82;;;4.68;;
13981;SDS011;7065;50.880;5.502;2023-09-30T13:04:17;6.28;;;4.95;;
13981;SDS011;7065;50.880;5.502;2023-09-30T13:06:44;7.22;;;5.13;;
13981;SDS011;7065;50.880;5.502;2023-09-30T13:09:10;10.52;;;5.65;;
13981;SDS011;7065;50.880;5.502;2023-09-30T13:11:37;6.57;;;4.80;;
13981;SDS011;7065;50.880;5.502;2023-09-30T13:14:03;4.97;;;4.35;;
13981;SDS011;7065;50.880;5.502;2023-09-30T13:16:29;7.55;;;4.78;;
13981;SDS011;7065;50.880;5.502;2023-09-30T13:18:54;5.45;;;3.90;;
13981;SDS011;7065;50.880;5.502;2023-09-30T13:21:20;5.65;;;3.50;;
13981;SDS011;7065;50.880;5.502;2023-09-30T13:23:46;5.50;;;3.95;;
13981;SDS011;7065;50.880;5.502;2023-09-30T13:26:11;4.93;;;3.85;;
13981;SDS011;7065;50.880;5.502;2023-09-30T13:28:37;6.03;;;4.20;;
13981;SDS011;7065;50.880;5.502;2023-09-30T13:31:03;5.65;;;4.35;;
13981;SDS011;7065;50.880;5.502;2023-09-30T13:33:29;7.35;;;4.47;;
13981;SDS011;7065;50.880;5.502;2023-09-30T13:35:55;5.45;;;4.15;;
13981;SDS011;7065;50.880;5.502;2023-09-30T13:38:21;6.22;;;4.53;;
13981;SDS011;7065;50.880;5.502;2023-09-30T13:40:47;6.63;;;4.10;;
13981;SDS011;7065;50.880;5.502;2023-09-30T13:43:12;5.70;;;4.05;;
13981;SDS011;7065;50.880;5.502;2023-09-30T13:45:38;5.72;;;4.25;;
13981;SDS011;7065;50.880;5.502;2023-09-30T13:48:04;4.72;;;3.80;;
13981;SDS011;7065;50.880;5.502;2023-09-30T13:50:30;5.53;;;4.30;;
13981;SDS011;7065;50.880;5.502;2023-09-30T13:52:55;6.38;;;3.90;;
13981;SDS011;7065;50.880;5.502;2023-09-30T13:55:22;4.75;;;3.70;;
13981;SDS011;7065;50.880;5.502;2023-09-30T13:57:47;5.50;;;3.55;;
13981;SDS011;7065;50.880;5.502;2023-09-30T14:00:13;5.55;;;3.63;;
13981;SDS011;7065;50.880;5.502;2023-09-30T14:02:40;4.95;;;3.15;;
13981;SDS011;7065;50.880;5.502;2023-09-30T14:05:06;4.90;;;3.20;;
13981;SDS011;7065;50.880;5.502;2023-09-30T14:07:35;5.55;;;3.55;;
13981;SDS011;7065;50.880;5.502;2023-09-30T14:10:02;4.43;;;3.53;;
13981;SDS011;7065;50.880;5.502;2023-09-30T14:12:28;3.45;;;3.15;;
13981;SDS011;7065;50.880;5.502;2023-09-30T14:14:55;3.38;;;2.60;;
13981;SDS011;7065;50.880;5.502;2023-09-30T14:17:21;5.07;;;3.42;;
13981;SDS011;7065;50.880;5.502;2023-09-30T14:19:46;4.80;;;3.40;;
13981;SDS011;7065;50.880;5.502;2023-09-30T14:22:12;3.67;;;3.03;;
13981;SDS011;7065;50.880;5.502;2023-09-30T14:24:38;6.05;;;3.88;;
13981;SDS011;7065;50.880;5.502;2023-09-30T14:27:04;4.72;;;3.30;;
13981;SDS011;7065;50.880;5.502;2023-09-30T14:29:30;5.18;;;3.67;;
13981;SDS011;7065;50.880;5.502;2023-09-30T14:31:56;4.88;;;3.15;;
13981;SDS011;7065;50.880;5.502;2023-09-30T14:34:22;4.00;;;3.08;;
13981;SDS011;7065;50.880;5.502;2023-09-30T14:36:49;4.18;;;3.60;;
13981;SDS011;7065;50.880;5.502;2023-09-30T14:39:15;4.25;;;3.00;;
13981;SDS011;7065;50.880;5.502;2023-09-30T14:41:42;4.20;;;3.20;;
13981;SDS011;7065;50.880;5.502;2023-09-30T14:44:08;5.95;;;3.15;;
13981;SDS011;7065;50.880;5.502;2023-09-30T14:46:36;4.18;;;3.05;;
13981;SDS011;7065;50.880;5.502;2023-09-30T14:49:03;5.28;;;3.30;;
13981;SDS011;7065;50.880;5.502;2023-09-30T14:51:31;4.15;;;3.10;;
13981;SDS011;7065;50.880;5.502;2023-09-30T14:53:58;6.18;;;3.35;;
13981;SDS011;7065;50.880;5.502;2023-09-30T14:56:23;4.65;;;2.95;;
13981;SDS011;7065;50.880;5.502;2023-09-30T14:58:49;4.22;;;3.80;;
13981;SDS011;7065;50.880;5.502;2023-09-30T15:01:15;3.85;;;3.25;;
13981;SDS011;7065;50.880;5.502;2023-09-30T15:03:40;4.55;;;3.05;;
13981;SDS011;7065;50.880;5.502;2023-09-30T15:06:06;4.65;;;3.33;;
13981;SDS011;7065;50.880;5.502;2023-09-30T15:08:33;5.28;;;3.40;;
13981;SDS011;7065;50.880;5.502;2023-09-30T15:10:59;3.63;;;3.33;;
13981;SDS011;7065;50.880;5.502;2023-09-30T15:13:25;4.13;;;3.40;;